sensor_id;sensor_type;location;lat;lon;timestamp;P1;durP1;ratioP1;P2;durP2;ratioP2
7080;SDS011;3582;51.506;11.948;2022-09-09T00:01:50;10.70;;;4.13;;
7080;SDS011;3582;51.506;11.948;2022-09-09T00:04:30;3.73;;;3.53;;
7080;SDS011;3582;51.506;11.948;2022-09-09T00:09:28;5.20;;;4.00;;
7080;SDS011;3582;51.506;11.948;2022-09-09T00:11:58;5.03;;;3.73;;
7080;SDS011;3582;51.506;11.948;2022-09-09T00:17:02;4.97;;;3.90;;
7080;SDS011;3582;51.506;11.948;2022-09-09T00:19:36;4.33;;;4.03;;
7080;SDS011;3582;51.506;11.948;2022-09-09T00:27:25;4.80;;;3.70;;
7080;SDS011;3582;51.506;11.948;2022-09-09T00:30:15;7.63;;;3.90;;
7080;SDS011;3582;51.506;11.948;2022-09-09T00:32:43;7.83;;;4.37;;
7080;SDS011;3582;51.506;11.948;2022-09-09T00:37:35;4.83;;;4.43;;
7080;SDS011;3582;51.506;11.948;2022-09-09T00:40:04;6.73;;;4.03;;
7080;SDS011;3582;51.506;11.948;2022-09-09T00:42:43;9.23;;;4.20;;
7080;SDS011;3582;51.506;11.948;2022-09-09T00:55:46;6.00;;;3.83;;
7080;SDS011;3582;51.506;11.948;2022-09-09T00:58:14;5.17;;;4.60;;
7080;SDS011;3582;51.506;11.948;2022-09-09T01:00:44;7.07;;;4.23;;
7080;SDS011;3582;51.506;11.948;2022-09-09T01:03:19;4.90;;;3.87;;
7080;SDS011;3582;51.506;11.948;2022-09-09T01:05:51;4.80;;;4.30;;
7080;SDS011;3582;51.506;11.948;2022-09-09T01:11:05;3.80;;;3.50;;
7080;SDS011;3582;51.506;11.948;2022-09-09T01:13:33;5.23;;;3.90;;
7080;SDS011;3582;51.506;11.948;2022-09-09T01:16:01;4.30;;;3.57;;
7080;SDS011;3582;51.506;11.948;2022-09-09T01:18:32;10.27;;;4.70;;
7080;SDS011;3582;51.506;11.948;2022-09-09T01:26:13;4.57;;;4.17;;
7080;SDS011;3582;51.506;11.948;2022-09-09T01:28:42;4.47;;;4.07;;
7080;SDS011;3582;51.506;11.948;2022-09-09T01:31:09;11.30;;;4.17;;
7080;SDS011;3582;51.506;11.948;2022-09-09T01:33:37;3.63;;;3.43;;
7080;SDS011;3582;51.506;11.948;2022-09-09T01:36:24;3.87;;;3.57;;
7080;SDS011;3582;51.506;11.948;2022-09-09T01:38:51;5.33;;;5.03;;
7080;SDS011;3582;51.506;11.948;2022-09-09T01:41:17;4.20;;;3.80;;
7080;SDS011;3582;51.506;11.948;2022-09-09T01:43:43;5.00;;;4.67;;
7080;SDS011;3582;51.506;11.948;2022-09-09T01:46:09;4.60;;;4.10;;
7080;SDS011;3582;51.506;11.948;2022-09-09T01:48:36;3.83;;;3.50;;
7080;SDS011;3582;51.506;11.948;2022-09-09T01:51:03;12.30;;;4.73;;
7080;SDS011;3582;51.506;11.948;2022-09-09T01:53:29;4.03;;;3.77;;
7080;SDS011;3582;51.506;11.948;2022-09-09T01:55:58;7.23;;;3.23;;
7080;SDS011;3582;51.506;11.948;2022-09-09T01:58:31;3.50;;;3.20;;
7080;SDS011;3582;51.506;11.948;2022-09-09T02:03:27;3.57;;;3.27;;
7080;SDS011;3582;51.506;11.948;2022-09-09T02:09:07;9.27;;;4.17;;
7080;SDS011;3582;51.506;11.948;2022-09-09T02:11:15;3.80;;;3.60;;
7080;SDS011;3582;51.506;11.948;2022-09-09T02:13:43;6.00;;;3.80;;
7080;SDS011;3582;51.506;11.948;2022-09-09T02:16:30;20.53;;;4.87;;
7080;SDS011;3582;51.506;11.948;2022-09-09T02:21:28;4.53;;;3.67;;
7080;SDS011;3582;51.506;11.948;2022-09-09T02:23:54;4.80;;;3.87;;
7080;SDS011;3582;51.506;11.948;2022-09-09T02:26:22;5.97;;;4.00;;
7080;SDS011;3582;51.506;11.948;2022-09-09T02:28:50;5.47;;;4.40;;
7080;SDS011;3582;51.506;11.948;2022-09-09T02:31:17;4.10;;;3.13;;
7080;SDS011;3582;51.506;11.948;2022-09-09T02:33:46;4.63;;;3.33;;
7080;SDS011;3582;51.506;11.948;2022-09-09T02:36:14;5.87;;;3.47;;
7080;SDS011;3582;51.506;11.948;2022-09-09T02:38:42;5.83;;;3.60;;
7080;SDS011;3582;51.506;11.948;2022-09-09T02:41:10;4.67;;;3.37;;
7080;SDS011;3582;51.506;11.948;2022-09-09T02:43:36;6.80;;;4.80;;
7080;SDS011;3582;51.506;11.948;2022-09-09T02:46:04;8.30;;;3.50;;
7080;SDS011;3582;51.506;11.948;2022-09-09T02:48:48;3.63;;;3.10;;
7080;SDS011;3582;51.506;11.948;2022-09-09T02:52:00;4.80;;;3.00;;
7080;SDS011;3582;51.506;11.948;2022-09-09T02:56:39;7.53;;;3.43;;
7080;SDS011;3582;51.506;11.948;2022-09-09T02:59:06;5.43;;;4.03;;
7080;SDS011;3582;51.506;11.948;2022-09-09T03:01:32;8.50;;;3.90;;
7080;SDS011;3582;51.506;11.948;2022-09-09T03:03:58;3.30;;;3.10;;
7080;SDS011;3582;51.506;11.948;2022-09-09T03:06:24;9.40;;;3.60;;
7080;SDS011;3582;51.506;11.948;2022-09-09T03:08:50;3.57;;;3.37;;
7080;SDS011;3582;51.506;11.948;2022-09-09T03:11:17;11.93;;;4.00;;
7080;SDS011;3582;51.506;11.948;2022-09-09T03:13:43;4.23;;;3.93;;
7080;SDS011;3582;51.506;11.948;2022-09-09T03:16:09;5.10;;;4.13;;
7080;SDS011;3582;51.506;11.948;2022-09-09T03:18:35;5.30;;;3.50;;
7080;SDS011;3582;51.506;11.948;2022-09-09T03:21:01;7.33;;;3.87;;
7080;SDS011;3582;51.506;11.948;2022-09-09T03:23:27;6.00;;;3.10;;
7080;SDS011;3582;51.506;11.948;2022-09-09T03:25:54;3.40;;;3.17;;
7080;SDS011;3582;51.506;11.948;2022-09-09T03:28:22;7.63;;;3.50;;
7080;SDS011;3582;51.506;11.948;2022-09-09T03:30:48;4.27;;;3.87;;
7080;SDS011;3582;51.506;11.948;2022-09-09T03:33:14;5.90;;;3.07;;
7080;SDS011;3582;51.506;11.948;2022-09-09T03:35:44;3.20;;;2.70;;
7080;SDS011;3582;51.506;11.948;2022-09-09T03:38:12;4.80;;;3.10;;
7080;SDS011;3582;51.506;11.948;2022-09-09T03:40:38;4.27;;;3.87;;
7080;SDS011;3582;51.506;11.948;2022-09-09T03:43:04;7.50;;;3.63;;
7080;SDS011;3582;51.506;11.948;2022-09-09T03:45:30;5.40;;;3.10;;
7080;SDS011;3582;51.506;11.948;2022-09-09T03:47:56;4.70;;;3.80;;
7080;SDS011;3582;51.506;11.948;2022-09-09T03:50:22;5.23;;;3.10;;
7080;SDS011;3582;51.506;11.948;2022-09-09T03:52:48;6.40;;;3.43;;
7080;SDS011;3582;51.506;11.948;2022-09-09T03:55:15;4.23;;;3.50;;
7080;SDS011;3582;51.506;11.948;2022-09-09T03:57:41;3.83;;;3.53;;
7080;SDS011;3582;51.506;11.948;2022-09-09T04:00:07;4.60;;;4.30;;
7080;SDS011;3582;51.506;11.948;2022-09-09T04:02:33;6.03;;;3.47;;
7080;SDS011;3582;51.506;11.948;2022-09-09T04:04:59;4.20;;;2.83;;
7080;SDS011;3582;51.506;11.948;2022-09-09T04:07:26;4.80;;;3.83;;
7080;SDS011;3582;51.506;11.948;2022-09-09T04:09:53;4.20;;;3.90;;
7080;SDS011;3582;51.506;11.948;2022-09-09T04:12:19;4.13;;;3.73;;
7080;SDS011;3582;51.506;11.948;2022-09-09T04:14:45;6.33;;;4.10;;
7080;SDS011;3582;51.506;11.948;2022-09-09T04:17:11;7.90;;;3.80;;
7080;SDS011;3582;51.506;11.948;2022-09-09T04:19:37;5.13;;;4.67;;
7080;SDS011;3582;51.506;11.948;2022-09-09T04:22:03;5.47;;;3.70;;
7080;SDS011;3582;51.506;11.948;2022-09-09T04:24:29;8.60;;;5.80;;
7080;SDS011;3582;51.506;11.948;2022-09-09T04:26:55;6.07;;;4.67;;
7080;SDS011;3582;51.506;11.948;2022-09-09T04:29:21;8.10;;;5.90;;
7080;SDS011;3582;51.506;11.948;2022-09-09T04:31:47;6.93;;;5.10;;
7080;SDS011;3582;51.506;11.948;2022-09-09T04:34:13;8.00;;;4.70;;
7080;SDS011;3582;51.506;11.948;2022-09-09T04:36:39;11.63;;;5.60;;
7080;SDS011;3582;51.506;11.948;2022-09-09T04:39:05;6.40;;;5.20;;
7080;SDS011;3582;51.506;11.948;2022-09-09T04:41:31;6.30;;;5.10;;
7080;SDS011;3582;51.506;11.948;2022-09-09T04:43:57;12.97;;;5.00;;
7080;SDS011;3582;51.506;11.948;2022-09-09T04:46:24;13.40;;;7.00;;
7080;SDS011;3582;51.506;11.948;2022-09-09T04:48:51;10.90;;;8.90;;
7080;SDS011;3582;51.506;11.948;2022-09-09T04:51:17;11.47;;;5.83;;
7080;SDS011;3582;51.506;11.948;2022-09-09T04:53:43;7.43;;;5.67;;
7080;SDS011;3582;51.506;11.948;2022-09-09T04:56:16;6.90;;;6.20;;
7080;SDS011;3582;51.506;11.948;2022-09-09T04:58:42;5.27;;;4.70;;
7080;SDS011;3582;51.506;11.948;2022-09-09T05:01:13;8.87;;;4.40;;
7080;SDS011;3582;51.506;11.948;2022-09-09T05:03:39;15.23;;;4.77;;
7080;SDS011;3582;51.506;11.948;2022-09-09T05:06:05;8.50;;;4.20;;
7080;SDS011;3582;51.506;11.948;2022-09-09T05:08:33;6.80;;;4.43;;
7080;SDS011;3582;51.506;11.948;2022-09-09T05:10:59;5.30;;;4.80;;
7080;SDS011;3582;51.506;11.948;2022-09-09T05:13:25;4.90;;;4.30;;
7080;SDS011;3582;51.506;11.948;2022-09-09T05:15:54;4.40;;;3.50;;
7080;SDS011;3582;51.506;11.948;2022-09-09T05:18:21;4.53;;;4.20;;
7080;SDS011;3582;51.506;11.948;2022-09-09T05:20:47;4.83;;;4.53;;
7080;SDS011;3582;51.506;11.948;2022-09-09T05:23:13;7.30;;;4.90;;
7080;SDS011;3582;51.506;11.948;2022-09-09T05:25:39;5.20;;;3.60;;
7080;SDS011;3582;51.506;11.948;2022-09-09T05:28:06;4.67;;;4.27;;
7080;SDS011;3582;51.506;11.948;2022-09-09T05:30:32;5.13;;;4.53;;
7080;SDS011;3582;51.506;11.948;2022-09-09T05:32:58;6.33;;;4.80;;
7080;SDS011;3582;51.506;11.948;2022-09-09T05:35:24;5.20;;;4.70;;
7080;SDS011;3582;51.506;11.948;2022-09-09T05:37:51;7.27;;;4.23;;
7080;SDS011;3582;51.506;11.948;2022-09-09T05:40:16;6.50;;;4.47;;
7080;SDS011;3582;51.506;11.948;2022-09-09T05:42:43;6.33;;;4.17;;
7080;SDS011;3582;51.506;11.948;2022-09-09T05:45:09;4.83;;;4.40;;
7080;SDS011;3582;51.506;11.948;2022-09-09T05:47:35;8.10;;;4.50;;
7080;SDS011;3582;51.506;11.948;2022-09-09T05:50:02;5.80;;;4.33;;
7080;SDS011;3582;51.506;11.948;2022-09-09T05:52:28;4.80;;;3.90;;
7080;SDS011;3582;51.506;11.948;2022-09-09T05:54:54;8.77;;;5.03;;
7080;SDS011;3582;51.506;11.948;2022-09-09T05:57:21;8.80;;;4.23;;
7080;SDS011;3582;51.506;11.948;2022-09-09T05:59:47;6.57;;;4.47;;
7080;SDS011;3582;51.506;11.948;2022-09-09T06:02:14;9.20;;;6.20;;
7080;SDS011;3582;51.506;11.948;2022-09-09T06:04:40;4.00;;;3.17;;
7080;SDS011;3582;51.506;11.948;2022-09-09T06:07:06;4.50;;;4.07;;
7080;SDS011;3582;51.506;11.948;2022-09-09T06:09:32;6.70;;;3.60;;
7080;SDS011;3582;51.506;11.948;2022-09-09T06:11:58;5.97;;;3.93;;
7080;SDS011;3582;51.506;11.948;2022-09-09T06:14:24;7.47;;;4.10;;
7080;SDS011;3582;51.506;11.948;2022-09-09T06:16:51;8.47;;;3.77;;
7080;SDS011;3582;51.506;11.948;2022-09-09T06:19:17;4.00;;;3.20;;
7080;SDS011;3582;51.506;11.948;2022-09-09T06:21:45;4.40;;;3.10;;
7080;SDS011;3582;51.506;11.948;2022-09-09T06:24:12;11.83;;;4.10;;
7080;SDS011;3582;51.506;11.948;2022-09-09T06:26:42;4.03;;;3.03;;
7080;SDS011;3582;51.506;11.948;2022-09-09T06:29:09;3.70;;;3.40;;
7080;SDS011;3582;51.506;11.948;2022-09-09T06:31:36;6.37;;;3.10;;
7080;SDS011;3582;51.506;11.948;2022-09-09T06:34:04;7.53;;;3.60;;
7080;SDS011;3582;51.506;11.948;2022-09-09T06:36:31;7.20;;;3.53;;
7080;SDS011;3582;51.506;11.948;2022-09-09T06:38:57;4.80;;;3.00;;
7080;SDS011;3582;51.506;11.948;2022-09-09T06:41:25;10.70;;;2.70;;
7080;SDS011;3582;51.506;11.948;2022-09-09T06:43:51;3.43;;;2.70;;
7080;SDS011;3582;51.506;11.948;2022-09-09T06:46:18;5.23;;;3.83;;
7080;SDS011;3582;51.506;11.948;2022-09-09T06:48:45;4.80;;;2.57;;
7080;SDS011;3582;51.506;11.948;2022-09-09T06:51:15;4.50;;;3.20;;
7080;SDS011;3582;51.506;11.948;2022-09-09T06:53:42;9.80;;;2.97;;
7080;SDS011;3582;51.506;11.948;2022-09-09T06:58:35;9.10;;;3.50;;
7080;SDS011;3582;51.506;11.948;2022-09-09T07:01:05;3.40;;;1.90;;
7080;SDS011;3582;51.506;11.948;2022-09-09T07:03:31;5.17;;;3.50;;
7080;SDS011;3582;51.506;11.948;2022-09-09T07:05:58;3.60;;;2.13;;
7080;SDS011;3582;51.506;11.948;2022-09-09T07:08:24;5.90;;;2.97;;
7080;SDS011;3582;51.506;11.948;2022-09-09T07:10:51;10.00;;;3.13;;
7080;SDS011;3582;51.506;11.948;2022-09-09T07:13:19;4.40;;;1.83;;
7080;SDS011;3582;51.506;11.948;2022-09-09T07:15:46;2.70;;;2.40;;
7080;SDS011;3582;51.506;11.948;2022-09-09T07:18:12;3.23;;;1.60;;
7080;SDS011;3582;51.506;11.948;2022-09-09T07:20:38;4.93;;;1.93;;
7080;SDS011;3582;51.506;11.948;2022-09-09T07:23:03;3.80;;;2.47;;
7080;SDS011;3582;51.506;11.948;2022-09-09T07:25:29;2.77;;;2.07;;
7080;SDS011;3582;51.506;11.948;2022-09-09T07:27:55;2.33;;;1.70;;
7080;SDS011;3582;51.506;11.948;2022-09-09T07:30:22;2.40;;;2.17;;
7080;SDS011;3582;51.506;11.948;2022-09-09T07:32:48;4.33;;;2.67;;
7080;SDS011;3582;51.506;11.948;2022-09-09T07:35:16;6.77;;;2.20;;
7080;SDS011;3582;51.506;11.948;2022-09-09T07:37:42;3.50;;;1.90;;
7080;SDS011;3582;51.506;11.948;2022-09-09T07:40:08;2.93;;;2.70;;
7080;SDS011;3582;51.506;11.948;2022-09-09T07:42:35;7.80;;;2.10;;
7080;SDS011;3582;51.506;11.948;2022-09-09T07:45:02;4.67;;;2.10;;
7080;SDS011;3582;51.506;11.948;2022-09-09T07:47:28;4.73;;;1.60;;
7080;SDS011;3582;51.506;11.948;2022-09-09T07:49:54;8.53;;;3.20;;
7080;SDS011;3582;51.506;11.948;2022-09-09T07:52:20;4.93;;;2.70;;
7080;SDS011;3582;51.506;11.948;2022-09-09T07:54:46;2.60;;;1.90;;
7080;SDS011;3582;51.506;11.948;2022-09-09T07:57:12;3.53;;;2.00;;
7080;SDS011;3582;51.506;11.948;2022-09-09T07:59:40;2.30;;;2.10;;
7080;SDS011;3582;51.506;11.948;2022-09-09T08:02:06;3.83;;;2.00;;
7080;SDS011;3582;51.506;11.948;2022-09-09T08:04:32;3.70;;;2.17;;
7080;SDS011;3582;51.506;11.948;2022-09-09T08:06:59;2.87;;;2.17;;
7080;SDS011;3582;51.506;11.948;2022-09-09T08:09:35;2.20;;;1.93;;
7080;SDS011;3582;51.506;11.948;2022-09-09T08:12:01;10.13;;;2.60;;
7080;SDS011;3582;51.506;11.948;2022-09-09T08:14:27;5.20;;;1.77;;
7080;SDS011;3582;51.506;11.948;2022-09-09T08:16:54;2.20;;;1.60;;
7080;SDS011;3582;51.506;11.948;2022-09-09T08:19:21;3.23;;;1.90;;
7080;SDS011;3582;51.506;11.948;2022-09-09T08:21:48;4.00;;;1.70;;
7080;SDS011;3582;51.506;11.948;2022-09-09T08:24:14;2.10;;;1.70;;
7080;SDS011;3582;51.506;11.948;2022-09-09T08:26:41;9.30;;;2.50;;
7080;SDS011;3582;51.506;11.948;2022-09-09T08:29:08;7.43;;;2.50;;
7080;SDS011;3582;51.506;11.948;2022-09-09T08:31:39;4.73;;;2.33;;
7080;SDS011;3582;51.506;11.948;2022-09-09T08:34:06;7.73;;;2.73;;
7080;SDS011;3582;51.506;11.948;2022-09-09T08:36:42;2.33;;;1.70;;
7080;SDS011;3582;51.506;11.948;2022-09-09T08:39:09;2.90;;;1.50;;
7080;SDS011;3582;51.506;11.948;2022-09-09T08:52:27;10.60;;;2.33;;
7080;SDS011;3582;51.506;11.948;2022-09-09T08:54:55;3.73;;;2.10;;
7080;SDS011;3582;51.506;11.948;2022-09-09T08:57:25;1.93;;;1.83;;
7080;SDS011;3582;51.506;11.948;2022-09-09T08:59:52;4.67;;;2.30;;
7080;SDS011;3582;51.506;11.948;2022-09-09T09:04:56;3.60;;;1.53;;
7080;SDS011;3582;51.506;11.948;2022-09-09T09:07:43;5.73;;;1.60;;
7080;SDS011;3582;51.506;11.948;2022-09-09T09:10:21;7.63;;;2.43;;
7080;SDS011;3582;51.506;11.948;2022-09-09T09:12:51;8.30;;;1.90;;
7080;SDS011;3582;51.506;11.948;2022-09-09T09:15:18;5.77;;;4.47;;
7080;SDS011;3582;51.506;11.948;2022-09-09T09:17:46;1.93;;;1.63;;
7080;SDS011;3582;51.506;11.948;2022-09-09T09:20:14;3.53;;;1.57;;
7080;SDS011;3582;51.506;11.948;2022-09-09T09:22:48;4.83;;;1.83;;
7080;SDS011;3582;51.506;11.948;2022-09-09T09:27:54;3.50;;;1.50;;
7080;SDS011;3582;51.506;11.948;2022-09-09T09:30:26;2.00;;;1.47;;
7080;SDS011;3582;51.506;11.948;2022-09-09T09:32:56;7.30;;;1.77;;
7080;SDS011;3582;51.506;11.948;2022-09-09T09:35:24;4.90;;;2.07;;
7080;SDS011;3582;51.506;11.948;2022-09-09T09:37:50;6.23;;;1.60;;
7080;SDS011;3582;51.506;11.948;2022-09-09T09:40:19;2.63;;;1.80;;
7080;SDS011;3582;51.506;11.948;2022-09-09T09:42:49;4.87;;;2.10;;
7080;SDS011;3582;51.506;11.948;2022-09-09T09:45:18;1.50;;;1.40;;
7080;SDS011;3582;51.506;11.948;2022-09-09T09:47:46;2.33;;;1.90;;
7080;SDS011;3582;51.506;11.948;2022-09-09T09:50:23;1.87;;;1.30;;
7080;SDS011;3582;51.506;11.948;2022-09-09T09:52:59;2.77;;;1.87;;
7080;SDS011;3582;51.506;11.948;2022-09-09T09:55:25;3.13;;;1.90;;
7080;SDS011;3582;51.506;11.948;2022-09-09T09:57:52;5.27;;;1.60;;
7080;SDS011;3582;51.506;11.948;2022-09-09T10:00:20;3.27;;;2.00;;
7080;SDS011;3582;51.506;11.948;2022-09-09T10:02:47;5.33;;;1.40;;
7080;SDS011;3582;51.506;11.948;2022-09-09T10:05:23;4.63;;;1.70;;
7080;SDS011;3582;51.506;11.948;2022-09-09T10:08:03;1.83;;;1.73;;
7080;SDS011;3582;51.506;11.948;2022-09-09T10:10:35;3.93;;;2.10;;
7080;SDS011;3582;51.506;11.948;2022-09-09T10:13:10;2.73;;;1.60;;
7080;SDS011;3582;51.506;11.948;2022-09-09T10:18:30;2.00;;;1.53;;
7080;SDS011;3582;51.506;11.948;2022-09-09T10:23:36;2.00;;;1.67;;
7080;SDS011;3582;51.506;11.948;2022-09-09T10:26:12;3.10;;;2.00;;
7080;SDS011;3582;51.506;11.948;2022-09-09T10:28:47;2.37;;;1.50;;
7080;SDS011;3582;51.506;11.948;2022-09-09T10:33:51;3.40;;;2.10;;
7080;SDS011;3582;51.506;11.948;2022-09-09T10:36:20;2.40;;;1.73;;
7080;SDS011;3582;51.506;11.948;2022-09-09T10:38:48;2.17;;;1.37;;
7080;SDS011;3582;51.506;11.948;2022-09-09T10:54:00;7.70;;;1.83;;
7080;SDS011;3582;51.506;11.948;2022-09-09T10:56:28;7.67;;;2.50;;
7080;SDS011;3582;51.506;11.948;2022-09-09T10:59:09;1.77;;;1.50;;
7080;SDS011;3582;51.506;11.948;2022-09-09T11:01:41;5.83;;;2.70;;
7080;SDS011;3582;51.506;11.948;2022-09-09T11:04:17;2.47;;;1.43;;
7080;SDS011;3582;51.506;11.948;2022-09-09T11:06:51;2.60;;;1.63;;
7080;SDS011;3582;51.506;11.948;2022-09-09T11:09:19;6.33;;;2.23;;
7080;SDS011;3582;51.506;11.948;2022-09-09T11:11:57;1.83;;;1.30;;
7080;SDS011;3582;51.506;11.948;2022-09-09T11:14:42;2.20;;;1.63;;
7080;SDS011;3582;51.506;11.948;2022-09-09T11:17:16;6.30;;;2.50;;
7080;SDS011;3582;51.506;11.948;2022-09-09T11:19:44;2.80;;;2.27;;
7080;SDS011;3582;51.506;11.948;2022-09-09T11:22:27;2.53;;;1.13;;
7080;SDS011;3582;51.506;11.948;2022-09-09T11:27:43;1.93;;;1.60;;
7080;SDS011;3582;51.506;11.948;2022-09-09T11:30:17;6.47;;;1.67;;
7080;SDS011;3582;51.506;11.948;2022-09-09T11:40:30;5.50;;;1.73;;
7080;SDS011;3582;51.506;11.948;2022-09-09T11:43:09;3.60;;;1.47;;
7080;SDS011;3582;51.506;11.948;2022-09-09T11:45:37;2.40;;;1.40;;
7080;SDS011;3582;51.506;11.948;2022-09-09T11:48:04;3.40;;;1.83;;
7080;SDS011;3582;51.506;11.948;2022-09-09T11:50:35;2.00;;;1.80;;
7080;SDS011;3582;51.506;11.948;2022-09-09T11:55:40;2.50;;;1.33;;
7080;SDS011;3582;51.506;11.948;2022-09-09T11:58:15;4.90;;;2.90;;
7080;SDS011;3582;51.506;11.948;2022-09-09T12:00:48;2.67;;;1.80;;
7080;SDS011;3582;51.506;11.948;2022-09-09T12:03:34;6.50;;;2.33;;
7080;SDS011;3582;51.506;11.948;2022-09-09T12:08:48;2.93;;;1.87;;
7080;SDS011;3582;51.506;11.948;2022-09-09T12:11:27;2.80;;;1.53;;
7080;SDS011;3582;51.506;11.948;2022-09-09T12:13:59;4.03;;;2.13;;
7080;SDS011;3582;51.506;11.948;2022-09-09T12:16:30;2.40;;;1.20;;
7080;SDS011;3582;51.506;11.948;2022-09-09T12:21:40;7.00;;;5.00;;
7080;SDS011;3582;51.506;11.948;2022-09-09T12:24:09;3.57;;;1.30;;
7080;SDS011;3582;51.506;11.948;2022-09-09T12:29:25;5.83;;;1.77;;
7080;SDS011;3582;51.506;11.948;2022-09-09T12:36:53;2.80;;;1.70;;
7080;SDS011;3582;51.506;11.948;2022-09-09T12:39:32;1.67;;;1.43;;
7080;SDS011;3582;51.506;11.948;2022-09-09T12:41:59;3.00;;;1.33;;
7080;SDS011;3582;51.506;11.948;2022-09-09T12:44:26;7.27;;;2.20;;
7080;SDS011;3582;51.506;11.948;2022-09-09T12:46:55;3.77;;;1.60;;
7080;SDS011;3582;51.506;11.948;2022-09-09T12:49:24;5.77;;;2.30;;
7080;SDS011;3582;51.506;11.948;2022-09-09T12:51:52;9.83;;;1.97;;
7080;SDS011;3582;51.506;11.948;2022-09-09T12:54:18;2.43;;;2.23;;
7080;SDS011;3582;51.506;11.948;2022-09-09T12:56:45;2.20;;;1.47;;
7080;SDS011;3582;51.506;11.948;2022-09-09T12:59:27;1.90;;;1.43;;
7080;SDS011;3582;51.506;11.948;2022-09-09T13:02:00;9.17;;;1.73;;
7080;SDS011;3582;51.506;11.948;2022-09-09T13:04:26;4.60;;;1.67;;
7080;SDS011;3582;51.506;11.948;2022-09-09T13:06:52;6.57;;;1.83;;
7080;SDS011;3582;51.506;11.948;2022-09-09T13:09:18;4.73;;;1.60;;
7080;SDS011;3582;51.506;11.948;2022-09-09T13:11:46;2.93;;;1.37;;
7080;SDS011;3582;51.506;11.948;2022-09-09T13:14:17;2.30;;;1.90;;
7080;SDS011;3582;51.506;11.948;2022-09-09T13:16:54;3.40;;;1.60;;
7080;SDS011;3582;51.506;11.948;2022-09-09T13:19:21;1.60;;;1.50;;
7080;SDS011;3582;51.506;11.948;2022-09-09T13:21:50;2.07;;;1.00;;
7080;SDS011;3582;51.506;11.948;2022-09-09T13:24:33;7.13;;;1.90;;
7080;SDS011;3582;51.506;11.948;2022-09-09T13:27:01;1.87;;;1.77;;
7080;SDS011;3582;51.506;11.948;2022-09-09T13:29:27;8.73;;;2.20;;
7080;SDS011;3582;51.506;11.948;2022-09-09T13:31:53;2.77;;;1.67;;
7080;SDS011;3582;51.506;11.948;2022-09-09T13:36:52;3.27;;;1.70;;
7080;SDS011;3582;51.506;11.948;2022-09-09T13:39:19;3.33;;;1.60;;
7080;SDS011;3582;51.506;11.948;2022-09-09T13:41:46;7.47;;;1.37;;
7080;SDS011;3582;51.506;11.948;2022-09-09T13:46:58;2.83;;;1.63;;
7080;SDS011;3582;51.506;11.948;2022-09-09T13:49:24;4.63;;;1.30;;
7080;SDS011;3582;51.506;11.948;2022-09-09T13:52:02;3.10;;;1.40;;
7080;SDS011;3582;51.506;11.948;2022-09-09T13:54:28;2.97;;;2.00;;
7080;SDS011;3582;51.506;11.948;2022-09-09T13:56:55;3.80;;;1.77;;
7080;SDS011;3582;51.506;11.948;2022-09-09T13:59:21;3.90;;;1.43;;
7080;SDS011;3582;51.506;11.948;2022-09-09T14:01:49;6.03;;;1.50;;
7080;SDS011;3582;51.506;11.948;2022-09-09T14:04:17;1.53;;;1.37;;
7080;SDS011;3582;51.506;11.948;2022-09-09T14:06:44;3.80;;;1.83;;
7080;SDS011;3582;51.506;11.948;2022-09-09T14:09:11;7.20;;;1.73;;
7080;SDS011;3582;51.506;11.948;2022-09-09T14:11:38;3.77;;;1.73;;
7080;SDS011;3582;51.506;11.948;2022-09-09T14:14:05;2.23;;;1.30;;
7080;SDS011;3582;51.506;11.948;2022-09-09T14:16:31;6.20;;;2.00;;
7080;SDS011;3582;51.506;11.948;2022-09-09T14:18:57;3.60;;;1.20;;
7080;SDS011;3582;51.506;11.948;2022-09-09T14:21:24;4.73;;;1.80;;
7080;SDS011;3582;51.506;11.948;2022-09-09T14:23:50;5.93;;;3.30;;
7080;SDS011;3582;51.506;11.948;2022-09-09T14:26:17;2.20;;;1.00;;
7080;SDS011;3582;51.506;11.948;2022-09-09T14:28:45;2.63;;;1.13;;
7080;SDS011;3582;51.506;11.948;2022-09-09T14:31:11;3.10;;;1.37;;
7080;SDS011;3582;51.506;11.948;2022-09-09T14:33:38;2.43;;;1.10;;
7080;SDS011;3582;51.506;11.948;2022-09-09T14:36:04;1.87;;;0.90;;
7080;SDS011;3582;51.506;11.948;2022-09-09T14:38:31;1.03;;;0.80;;
7080;SDS011;3582;51.506;11.948;2022-09-09T14:40:58;1.27;;;1.17;;
7080;SDS011;3582;51.506;11.948;2022-09-09T14:43:24;1.77;;;0.97;;
7080;SDS011;3582;51.506;11.948;2022-09-09T14:45:51;3.57;;;1.63;;
7080;SDS011;3582;51.506;11.948;2022-09-09T14:48:17;2.00;;;0.90;;
7080;SDS011;3582;51.506;11.948;2022-09-09T14:50:43;1.20;;;0.73;;
7080;SDS011;3582;51.506;11.948;2022-09-09T14:53:09;2.07;;;1.10;;
7080;SDS011;3582;51.506;11.948;2022-09-09T14:55:35;2.97;;;1.03;;
7080;SDS011;3582;51.506;11.948;2022-09-09T14:58:01;1.37;;;1.27;;
7080;SDS011;3582;51.506;11.948;2022-09-09T15:00:27;1.97;;;1.00;;
7080;SDS011;3582;51.506;11.948;2022-09-09T15:02:54;1.53;;;0.53;;
7080;SDS011;3582;51.506;11.948;2022-09-09T15:05:20;3.23;;;1.00;;
7080;SDS011;3582;51.506;11.948;2022-09-09T15:07:46;1.73;;;0.80;;
7080;SDS011;3582;51.506;11.948;2022-09-09T15:10:13;1.77;;;0.83;;
7080;SDS011;3582;51.506;11.948;2022-09-09T15:12:39;3.57;;;0.97;;
7080;SDS011;3582;51.506;11.948;2022-09-09T15:15:07;2.87;;;1.40;;
7080;SDS011;3582;51.506;11.948;2022-09-09T15:17:33;2.27;;;1.23;;
7080;SDS011;3582;51.506;11.948;2022-09-09T15:19:59;2.20;;;0.80;;
7080;SDS011;3582;51.506;11.948;2022-09-09T15:22:25;1.30;;;1.20;;
7080;SDS011;3582;51.506;11.948;2022-09-09T15:24:51;1.00;;;0.90;;
7080;SDS011;3582;51.506;11.948;2022-09-09T15:27:17;2.10;;;0.90;;
7080;SDS011;3582;51.506;11.948;2022-09-09T15:29:43;3.37;;;1.03;;
7080;SDS011;3582;51.506;11.948;2022-09-09T15:32:10;1.60;;;0.90;;
7080;SDS011;3582;51.506;11.948;2022-09-09T15:34:35;2.30;;;0.80;;
7080;SDS011;3582;51.506;11.948;2022-09-09T15:37:01;1.70;;;1.13;;
7080;SDS011;3582;51.506;11.948;2022-09-09T15:39:27;1.90;;;1.40;;
7080;SDS011;3582;51.506;11.948;2022-09-09T15:41:53;2.13;;;1.60;;
7080;SDS011;3582;51.506;11.948;2022-09-09T15:44:20;1.90;;;1.10;;
7080;SDS011;3582;51.506;11.948;2022-09-09T15:46:50;2.50;;;1.30;;
7080;SDS011;3582;51.506;11.948;2022-09-09T15:49:27;1.40;;;1.10;;
7080;SDS011;3582;51.506;11.948;2022-09-09T15:54:20;3.30;;;1.40;;
7080;SDS011;3582;51.506;11.948;2022-09-09T15:56:49;1.97;;;1.30;;
7080;SDS011;3582;51.506;11.948;2022-09-09T15:59:15;3.13;;;1.30;;
7080;SDS011;3582;51.506;11.948;2022-09-09T16:01:41;1.17;;;1.00;;
7080;SDS011;3582;51.506;11.948;2022-09-09T16:04:09;1.73;;;1.50;;
7080;SDS011;3582;51.506;11.948;2022-09-09T16:06:35;2.50;;;1.60;;
7080;SDS011;3582;51.506;11.948;2022-09-09T16:09:03;2.53;;;1.77;;
7080;SDS011;3582;51.506;11.948;2022-09-09T16:11:30;8.97;;;1.47;;
7080;SDS011;3582;51.506;11.948;2022-09-09T16:13:56;2.27;;;1.23;;
7080;SDS011;3582;51.506;11.948;2022-09-09T16:16:24;3.20;;;1.27;;
7080;SDS011;3582;51.506;11.948;2022-09-09T16:18:50;2.87;;;1.70;;
7080;SDS011;3582;51.506;11.948;2022-09-09T16:21:21;2.50;;;2.30;;
7080;SDS011;3582;51.506;11.948;2022-09-09T16:23:49;2.30;;;1.03;;
7080;SDS011;3582;51.506;11.948;2022-09-09T16:26:16;2.50;;;1.50;;
7080;SDS011;3582;51.506;11.948;2022-09-09T16:28:42;3.40;;;1.67;;
7080;SDS011;3582;51.506;11.948;2022-09-09T16:31:19;2.97;;;1.83;;
7080;SDS011;3582;51.506;11.948;2022-09-09T16:33:46;3.07;;;1.50;;
7080;SDS011;3582;51.506;11.948;2022-09-09T16:36:13;2.00;;;1.20;;
7080;SDS011;3582;51.506;11.948;2022-09-09T16:38:39;6.43;;;1.43;;
7080;SDS011;3582;51.506;11.948;2022-09-09T16:41:05;1.53;;;1.10;;
7080;SDS011;3582;51.506;11.948;2022-09-09T16:43:32;1.00;;;1.00;;
7080;SDS011;3582;51.506;11.948;2022-09-09T16:45:58;2.40;;;1.30;;
7080;SDS011;3582;51.506;11.948;2022-09-09T16:48:26;4.70;;;1.37;;
7080;SDS011;3582;51.506;11.948;2022-09-09T16:50:52;1.20;;;1.10;;
7080;SDS011;3582;51.506;11.948;2022-09-09T16:53:18;1.40;;;0.87;;
7080;SDS011;3582;51.506;11.948;2022-09-09T16:55:44;1.53;;;1.30;;
7080;SDS011;3582;51.506;11.948;2022-09-09T16:58:10;9.03;;;8.30;;
7080;SDS011;3582;51.506;11.948;2022-09-09T17:00:36;1.60;;;1.50;;
7080;SDS011;3582;51.506;11.948;2022-09-09T17:03:02;4.63;;;1.53;;